sensor_id;sensor_type;location;lat;lon;timestamp;P1;durP1;ratioP1;P2;durP2;ratioP2
17917;SDS011;9084;50.956;3.106;2023-05-14T00:00:13;23.50;;;20.85;;
17917;SDS011;9084;50.956;3.106;2023-05-14T00:02:40;23.60;;;21.13;;
17917;SDS011;9084;50.956;3.106;2023-05-14T00:05:06;22.75;;;20.55;;
17917;SDS011;9084;50.956;3.106;2023-05-14T00:07:32;25.52;;;23.25;;
17917;SDS011;9084;50.956;3.106;2023-05-14T00:09:58;24.92;;;22.52;;
17917;SDS011;9084;50.956;3.106;2023-05-14T00:12:27;24.42;;;22.08;;
17917;SDS011;9084;50.956;3.106;2023-05-14T00:14:54;24.27;;;21.90;;
17917;SDS011;9084;50.956;3.106;2023-05-14T00:17:22;24.80;;;22.33;;
17917;SDS011;9084;50.956;3.106;2023-05-14T00:19:47;22.10;;;19.90;;
17917;SDS011;9084;50.956;3.106;2023-05-14T00:22:13;24.90;;;22.48;;
17917;SDS011;9084;50.956;3.106;2023-05-14T00:24:39;25.25;;;22.73;;
17917;SDS011;9084;50.956;3.106;2023-05-14T00:27:06;25.67;;;23.02;;
17917;SDS011;9084;50.956;3.106;2023-05-14T00:29:32;23.73;;;21.27;;
17917;SDS011;9084;50.956;3.106;2023-05-14T00:31:58;23.92;;;19.98;;
17917;SDS011;9084;50.956;3.106;2023-05-14T00:34:23;21.75;;;19.48;;
17917;SDS011;9084;50.956;3.106;2023-05-14T00:36:49;21.40;;;19.27;;
17917;SDS011;9084;50.956;3.106;2023-05-14T00:39:18;26.30;;;22.05;;
17917;SDS011;9084;50.956;3.106;2023-05-14T00:41:45;23.05;;;20.40;;
17917;SDS011;9084;50.956;3.106;2023-05-14T00:44:11;23.55;;;21.17;;
17917;SDS011;9084;50.956;3.106;2023-05-14T00:46:37;22.10;;;19.23;;
17917;SDS011;9084;50.956;3.106;2023-05-14T00:49:02;22.10;;;19.90;;
17917;SDS011;9084;50.956;3.106;2023-05-14T00:51:28;27.15;;;19.08;;
17917;SDS011;9084;50.956;3.106;2023-05-14T00:53:54;24.02;;;17.45;;
17917;SDS011;9084;50.956;3.106;2023-05-14T00:56:20;23.75;;;18.52;;
17917;SDS011;9084;50.956;3.106;2023-05-14T00:58:46;19.67;;;17.60;;
17917;SDS011;9084;50.956;3.106;2023-05-14T01:01:11;22.02;;;19.70;;
17917;SDS011;9084;50.956;3.106;2023-05-14T01:03:39;19.55;;;17.40;;
17917;SDS011;9084;50.956;3.106;2023-05-14T01:08:58;22.52;;;20.30;;
17917;SDS011;9084;50.956;3.106;2023-05-14T01:11:29;22.25;;;19.92;;
17917;SDS011;9084;50.956;3.106;2023-05-14T01:14:42;21.80;;;19.58;;
17917;SDS011;9084;50.956;3.106;2023-05-14T01:17:07;22.35;;;20.13;;
17917;SDS011;9084;50.956;3.106;2023-05-14T01:19:39;22.52;;;20.40;;
17917;SDS011;9084;50.956;3.106;2023-05-14T01:22:11;22.52;;;20.30;;
17917;SDS011;9084;50.956;3.106;2023-05-14T01:24:37;25.92;;;19.02;;
17917;SDS011;9084;50.956;3.106;2023-05-14T01:29:35;20.30;;;18.05;;
17917;SDS011;9084;50.956;3.106;2023-05-14T01:32:05;22.27;;;20.27;;
17917;SDS011;9084;50.956;3.106;2023-05-14T01:34:34;25.92;;;23.20;;
17917;SDS011;9084;50.956;3.106;2023-05-14T01:37:01;23.90;;;19.88;;
17917;SDS011;9084;50.956;3.106;2023-05-14T01:39:29;21.92;;;19.63;;
17917;SDS011;9084;50.956;3.106;2023-05-14T01:41:56;24.98;;;22.40;;
17917;SDS011;9084;50.956;3.106;2023-05-14T01:44:23;21.27;;;18.98;;
17917;SDS011;9084;50.956;3.106;2023-05-14T01:46:49;24.33;;;21.25;;
17917;SDS011;9084;50.956;3.106;2023-05-14T01:49:17;25.42;;;20.85;;
17917;SDS011;9084;50.956;3.106;2023-05-14T01:51:45;26.00;;;23.48;;
17917;SDS011;9084;50.956;3.106;2023-05-14T01:54:11;28.48;;;25.65;;
17917;SDS011;9084;50.956;3.106;2023-05-14T01:56:38;27.95;;;23.60;;
17917;SDS011;9084;50.956;3.106;2023-05-14T01:59:04;25.25;;;22.88;;
17917;SDS011;9084;50.956;3.106;2023-05-14T02:01:30;29.17;;;26.48;;
17917;SDS011;9084;50.956;3.106;2023-05-14T02:03:55;26.27;;;23.63;;
17917;SDS011;9084;50.956;3.106;2023-05-14T02:06:24;30.60;;;25.27;;
17917;SDS011;9084;50.956;3.106;2023-05-14T02:08:50;26.45;;;23.85;;
17917;SDS011;9084;50.956;3.106;2023-05-14T02:11:15;29.95;;;25.10;;
17917;SDS011;9084;50.956;3.106;2023-05-14T02:13:43;29.77;;;24.65;;
17917;SDS011;9084;50.956;3.106;2023-05-14T02:16:11;30.15;;;27.15;;
17917;SDS011;9084;50.956;3.106;2023-05-14T02:18:37;27.33;;;24.63;;
17917;SDS011;9084;50.956;3.106;2023-05-14T02:21:02;28.52;;;24.85;;
17917;SDS011;9084;50.956;3.106;2023-05-14T02:23:28;30.25;;;27.17;;
17917;SDS011;9084;50.956;3.106;2023-05-14T02:25:54;29.85;;;26.75;;
17917;SDS011;9084;50.956;3.106;2023-05-14T02:28:22;30.02;;;27.13;;
17917;SDS011;9084;50.956;3.106;2023-05-14T02:30:50;28.33;;;25.40;;
17917;SDS011;9084;50.956;3.106;2023-05-14T02:33:15;29.42;;;26.52;;
17917;SDS011;9084;50.956;3.106;2023-05-14T02:35:41;31.13;;;28.08;;
17917;SDS011;9084;50.956;3.106;2023-05-14T02:38:08;27.80;;;25.10;;
17917;SDS011;9084;50.956;3.106;2023-05-14T02:40:35;27.80;;;23.45;;
17917;SDS011;9084;50.956;3.106;2023-05-14T02:43:03;27.73;;;24.83;;
17917;SDS011;9084;50.956;3.106;2023-05-14T02:45:32;27.45;;;22.85;;
17917;SDS011;9084;50.956;3.106;2023-05-14T02:48:00;27.15;;;24.40;;
17917;SDS011;9084;50.956;3.106;2023-05-14T02:50:26;25.23;;;22.38;;
17917;SDS011;9084;50.956;3.106;2023-05-14T02:52:56;25.63;;;22.92;;
17917;SDS011;9084;50.956;3.106;2023-05-14T02:55:22;23.13;;;19.80;;
17917;SDS011;9084;50.956;3.106;2023-05-14T02:57:52;27.50;;;24.70;;
17917;SDS011;9084;50.956;3.106;2023-05-14T03:00:18;26.42;;;23.75;;
17917;SDS011;9084;50.956;3.106;2023-05-14T03:02:46;26.33;;;23.70;;
17917;SDS011;9084;50.956;3.106;2023-05-14T03:05:14;27.30;;;24.50;;
17917;SDS011;9084;50.956;3.106;2023-05-14T03:07:39;25.48;;;22.98;;
17917;SDS011;9084;50.956;3.106;2023-05-14T03:10:05;25.50;;;22.95;;
17917;SDS011;9084;50.956;3.106;2023-05-14T03:12:35;25.35;;;23.02;;
17917;SDS011;9084;50.956;3.106;2023-05-14T03:15:01;25.38;;;21.02;;
17917;SDS011;9084;50.956;3.106;2023-05-14T03:17:29;26.83;;;21.77;;
17917;SDS011;9084;50.956;3.106;2023-05-14T03:19:57;25.45;;;22.90;;
17917;SDS011;9084;50.956;3.106;2023-05-14T03:22:24;25.70;;;21.55;;
17917;SDS011;9084;50.956;3.106;2023-05-14T03:24:52;22.63;;;20.25;;
17917;SDS011;9084;50.956;3.106;2023-05-14T03:27:18;25.25;;;19.33;;
17917;SDS011;9084;50.956;3.106;2023-05-14T03:29:48;20.92;;;18.83;;
17917;SDS011;9084;50.956;3.106;2023-05-14T03:32:16;23.88;;;21.63;;
17917;SDS011;9084;50.956;3.106;2023-05-14T03:34:42;25.02;;;22.63;;
17917;SDS011;9084;50.956;3.106;2023-05-14T03:37:08;24.88;;;22.20;;
17917;SDS011;9084;50.956;3.106;2023-05-14T03:39:34;22.45;;;20.15;;
17917;SDS011;9084;50.956;3.106;2023-05-14T03:42:00;23.55;;;21.10;;
17917;SDS011;9084;50.956;3.106;2023-05-14T03:44:28;22.75;;;20.65;;
17917;SDS011;9084;50.956;3.106;2023-05-14T03:46:56;25.30;;;22.58;;
17917;SDS011;9084;50.956;3.106;2023-05-14T03:49:22;23.02;;;20.25;;
17917;SDS011;9084;50.956;3.106;2023-05-14T03:51:48;22.48;;;20.08;;
17917;SDS011;9084;50.956;3.106;2023-05-14T03:54:16;21.80;;;19.48;;
17917;SDS011;9084;50.956;3.106;2023-05-14T03:56:41;24.80;;;20.33;;
17917;SDS011;9084;50.956;3.106;2023-05-14T03:59:07;25.67;;;22.88;;
17917;SDS011;9084;50.956;3.106;2023-05-14T04:01:33;23.77;;;21.40;;
17917;SDS011;9084;50.956;3.106;2023-05-14T04:03:58;27.05;;;23.33;;
17917;SDS011;9084;50.956;3.106;2023-05-14T04:06:24;23.38;;;21.08;;
17917;SDS011;9084;50.956;3.106;2023-05-14T04:08:50;22.80;;;20.45;;
17917;SDS011;9084;50.956;3.106;2023-05-14T04:11:15;24.30;;;21.65;;
17917;SDS011;9084;50.956;3.106;2023-05-14T04:13:43;24.17;;;21.50;;
17917;SDS011;9084;50.956;3.106;2023-05-14T04:16:09;23.70;;;21.30;;
17917;SDS011;9084;50.956;3.106;2023-05-14T04:18:34;29.50;;;26.80;;
17917;SDS011;9084;50.956;3.106;2023-05-14T04:21:02;30.95;;;28.10;;
17917;SDS011;9084;50.956;3.106;2023-05-14T04:23:30;28.80;;;26.17;;
17917;SDS011;9084;50.956;3.106;2023-05-14T04:25:56;33.28;;;29.92;;
17917;SDS011;9084;50.956;3.106;2023-05-14T04:28:22;31.33;;;28.00;;
17917;SDS011;9084;50.956;3.106;2023-05-14T04:30:50;32.22;;;28.98;;
17917;SDS011;9084;50.956;3.106;2023-05-14T04:33:16;29.83;;;26.90;;
17917;SDS011;9084;50.956;3.106;2023-05-14T04:35:42;28.95;;;26.13;;
17917;SDS011;9084;50.956;3.106;2023-05-14T04:38:11;26.48;;;24.05;;
17917;SDS011;9084;50.956;3.106;2023-05-14T04:40:38;24.08;;;21.58;;
17917;SDS011;9084;50.956;3.106;2023-05-14T04:43:05;26.02;;;23.67;;
17917;SDS011;9084;50.956;3.106;2023-05-14T04:45:32;26.15;;;23.27;;
17917;SDS011;9084;50.956;3.106;2023-05-14T04:47:57;25.70;;;23.27;;
17917;SDS011;9084;50.956;3.106;2023-05-14T04:50:25;26.35;;;23.88;;
17917;SDS011;9084;50.956;3.106;2023-05-14T04:52:51;25.83;;;23.52;;
17917;SDS011;9084;50.956;3.106;2023-05-14T04:55:17;23.77;;;21.27;;
17917;SDS011;9084;50.956;3.106;2023-05-14T04:57:42;23.73;;;21.23;;
17917;SDS011;9084;50.956;3.106;2023-05-14T05:00:08;24.98;;;22.50;;
17917;SDS011;9084;50.956;3.106;2023-05-14T05:02:37;25.60;;;23.05;;
17917;SDS011;9084;50.956;3.106;2023-05-14T05:05:02;21.60;;;19.40;;
17917;SDS011;9084;50.956;3.106;2023-05-14T05:07:28;21.73;;;19.67;;
17917;SDS011;9084;50.956;3.106;2023-05-14T05:09:54;20.23;;;18.17;;
17917;SDS011;9084;50.956;3.106;2023-05-14T05:12:19;21.85;;;19.63;;
17917;SDS011;9084;50.956;3.106;2023-05-14T05:14:45;21.42;;;18.17;;
17917;SDS011;9084;50.956;3.106;2023-05-14T05:17:11;20.38;;;18.45;;
17917;SDS011;9084;50.956;3.106;2023-05-14T05:19:36;20.40;;;18.30;;
17917;SDS011;9084;50.956;3.106;2023-05-14T05:22:05;23.55;;;19.60;;
17917;SDS011;9084;50.956;3.106;2023-05-14T05:24:31;21.85;;;19.55;;
17917;SDS011;9084;50.956;3.106;2023-05-14T05:26:56;20.15;;;18.02;;
17917;SDS011;9084;50.956;3.106;2023-05-14T05:29:23;21.40;;;19.25;;
17917;SDS011;9084;50.956;3.106;2023-05-14T05:31:48;21.08;;;18.98;;
17917;SDS011;9084;50.956;3.106;2023-05-14T05:34:14;22.55;;;20.48;;
17917;SDS011;9084;50.956;3.106;2023-05-14T05:36:40;21.50;;;19.67;;
17917;SDS011;9084;50.956;3.106;2023-05-14T05:39:06;23.65;;;21.08;;
17917;SDS011;9084;50.956;3.106;2023-05-14T05:41:31;21.17;;;19.13;;
17917;SDS011;9084;50.956;3.106;2023-05-14T05:43:57;22.17;;;19.75;;
17917;SDS011;9084;50.956;3.106;2023-05-14T05:46:27;23.83;;;21.40;;
17917;SDS011;9084;50.956;3.106;2023-05-14T05:48:52;23.83;;;21.58;;
17917;SDS011;9084;50.956;3.106;2023-05-14T05:51:18;24.05;;;21.75;;
17917;SDS011;9084;50.956;3.106;2023-05-14T05:53:44;24.45;;;20.90;;
17917;SDS011;9084;50.956;3.106;2023-05-14T05:56:10;22.60;;;20.15;;
17917;SDS011;9084;50.956;3.106;2023-05-14T05:58:38;22.27;;;20.10;;
17917;SDS011;9084;50.956;3.106;2023-05-14T06:01:03;19.70;;;17.88;;
17917;SDS011;9084;50.956;3.106;2023-05-14T06:03:29;20.02;;;18.02;;
17917;SDS011;9084;50.956;3.106;2023-05-14T06:05:54;20.38;;;18.77;;
17917;SDS011;9084;50.956;3.106;2023-05-14T06:08:20;21.25;;;19.27;;
17917;SDS011;9084;50.956;3.106;2023-05-14T06:10:48;20.17;;;18.27;;
17917;SDS011;9084;50.956;3.106;2023-05-14T06:13:13;20.05;;;18.00;;
17917;SDS011;9084;50.956;3.106;2023-05-14T06:15:41;19.77;;;17.77;;
17917;SDS011;9084;50.956;3.106;2023-05-14T06:18:07;22.00;;;19.75;;
17917;SDS011;9084;50.956;3.106;2023-05-14T06:20:35;21.75;;;19.77;;
17917;SDS011;9084;50.956;3.106;2023-05-14T06:23:01;24.40;;;22.02;;
17917;SDS011;9084;50.956;3.106;2023-05-14T06:25:31;24.33;;;22.08;;
17917;SDS011;9084;50.956;3.106;2023-05-14T06:27:56;23.30;;;21.17;;
17917;SDS011;9084;50.956;3.106;2023-05-14T06:30:22;21.77;;;19.95;;
17917;SDS011;9084;50.956;3.106;2023-05-14T06:32:48;22.50;;;18.50;;
17917;SDS011;9084;50.956;3.106;2023-05-14T06:35:16;19.92;;;18.02;;
17917;SDS011;9084;50.956;3.106;2023-05-14T06:37:43;19.23;;;17.50;;
17917;SDS011;9084;50.956;3.106;2023-05-14T06:40:09;18.98;;;17.08;;
17917;SDS011;9084;50.956;3.106;2023-05-14T06:42:36;20.33;;;18.55;;
17917;SDS011;9084;50.956;3.106;2023-05-14T06:45:04;18.20;;;16.33;;
17917;SDS011;9084;50.956;3.106;2023-05-14T06:47:30;18.40;;;16.67;;
17917;SDS011;9084;50.956;3.106;2023-05-14T06:49:56;18.63;;;16.98;;
17917;SDS011;9084;50.956;3.106;2023-05-14T06:52:25;18.23;;;16.42;;
17917;SDS011;9084;50.956;3.106;2023-05-14T06:54:50;18.67;;;16.98;;
17917;SDS011;9084;50.956;3.106;2023-05-14T06:57:18;17.85;;;16.25;;
17917;SDS011;9084;50.956;3.106;2023-05-14T06:59:46;19.77;;;18.00;;
17917;SDS011;9084;50.956;3.106;2023-05-14T07:02:14;20.08;;;18.13;;
17917;SDS011;9084;50.956;3.106;2023-05-14T07:04:39;20.92;;;18.75;;
17917;SDS011;9084;50.956;3.106;2023-05-14T07:07:05;19.20;;;17.25;;
17917;SDS011;9084;50.956;3.106;2023-05-14T07:09:31;20.50;;;18.65;;
17917;SDS011;9084;50.956;3.106;2023-05-14T07:11:57;20.05;;;18.10;;
17917;SDS011;9084;50.956;3.106;2023-05-14T07:14:27;20.00;;;17.77;;
17917;SDS011;9084;50.956;3.106;2023-05-14T07:16:57;19.15;;;17.20;;
17917;SDS011;9084;50.956;3.106;2023-05-14T07:19:24;18.25;;;16.42;;
17917;SDS011;9084;50.956;3.106;2023-05-14T07:21:53;18.25;;;16.52;;
17917;SDS011;9084;50.956;3.106;2023-05-14T07:24:21;16.73;;;15.15;;
17917;SDS011;9084;50.956;3.106;2023-05-14T07:26:50;16.85;;;15.45;;
17917;SDS011;9084;50.956;3.106;2023-05-14T07:29:16;16.90;;;15.40;;
17917;SDS011;9084;50.956;3.106;2023-05-14T07:31:41;15.23;;;13.93;;
17917;SDS011;9084;50.956;3.106;2023-05-14T07:34:09;16.23;;;14.73;;
17917;SDS011;9084;50.956;3.106;2023-05-14T07:36:37;15.35;;;13.85;;
17917;SDS011;9084;50.956;3.106;2023-05-14T07:39:03;15.32;;;13.93;;
17917;SDS011;9084;50.956;3.106;2023-05-14T07:41:31;17.30;;;15.75;;
17917;SDS011;9084;50.956;3.106;2023-05-14T07:43:57;16.70;;;15.15;;
17917;SDS011;9084;50.956;3.106;2023-05-14T07:46:22;16.92;;;15.25;;
17917;SDS011;9084;50.956;3.106;2023-05-14T07:48:52;16.02;;;14.45;;
17917;SDS011;9084;50.956;3.106;2023-05-14T07:51:20;17.15;;;15.43;;
17917;SDS011;9084;50.956;3.106;2023-05-14T07:53:48;18.02;;;16.17;;
17917;SDS011;9084;50.956;3.106;2023-05-14T07:56:13;15.93;;;14.48;;
17917;SDS011;9084;50.956;3.106;2023-05-14T07:58:39;14.80;;;13.60;;
17917;SDS011;9084;50.956;3.106;2023-05-14T08:01:05;15.05;;;13.65;;
17917;SDS011;9084;50.956;3.106;2023-05-14T08:03:33;14.07;;;12.90;;
17917;SDS011;9084;50.956;3.106;2023-05-14T08:06:01;14.63;;;13.35;;
17917;SDS011;9084;50.956;3.106;2023-05-14T08:08:27;14.82;;;12.82;;
17917;SDS011;9084;50.956;3.106;2023-05-14T08:10:56;14.13;;;12.70;;
17917;SDS011;9084;50.956;3.106;2023-05-14T08:13:24;15.02;;;13.63;;
17917;SDS011;9084;50.956;3.106;2023-05-14T08:15:52;14.82;;;13.52;;
17917;SDS011;9084;50.956;3.106;2023-05-14T08:18:18;14.25;;;13.18;;
17917;SDS011;9084;50.956;3.106;2023-05-14T08:20:48;14.85;;;13.48;;
17917;SDS011;9084;50.956;3.106;2023-05-14T08:23:14;14.35;;;13.15;;
17917;SDS011;9084;50.956;3.106;2023-05-14T08:25:39;14.45;;;13.20;;
17917;SDS011;9084;50.956;3.106;2023-05-14T08:28:05;15.02;;;13.60;;
17917;SDS011;9084;50.956;3.106;2023-05-14T08:30:34;15.15;;;13.85;;
17917;SDS011;9084;50.956;3.106;2023-05-14T08:33:02;14.23;;;12.85;;
17917;SDS011;9084;50.956;3.106;2023-05-14T08:35:30;15.10;;;13.23;;
17917;SDS011;9084;50.956;3.106;2023-05-14T08:37:55;13.65;;;12.45;;
17917;SDS011;9084;50.956;3.106;2023-05-14T08:40:23;13.48;;;12.38;;
17917;SDS011;9084;50.956;3.106;2023-05-14T08:42:51;14.38;;;12.82;;
17917;SDS011;9084;50.956;3.106;2023-05-14T08:45:19;14.60;;;13.13;;
17917;SDS011;9084;50.956;3.106;2023-05-14T08:47:49;14.35;;;13.05;;
17917;SDS011;9084;50.956;3.106;2023-05-14T08:50:15;14.23;;;12.93;;
17917;SDS011;9084;50.956;3.106;2023-05-14T08:52:44;16.27;;;14.60;;
17917;SDS011;9084;50.956;3.106;2023-05-14T08:55:10;15.57;;;14.18;;
17917;SDS011;9084;50.956;3.106;2023-05-14T08:57:36;14.68;;;13.20;;
17917;SDS011;9084;50.956;3.106;2023-05-14T09:00:02;14.82;;;13.32;;
17917;SDS011;9084;50.956;3.106;2023-05-14T09:02:39;13.63;;;12.52;;
17917;SDS011;9084;50.956;3.106;2023-05-14T09:05:05;14.38;;;13.10;;
17917;SDS011;9084;50.956;3.106;2023-05-14T09:07:33;11.88;;;10.80;;
17917;SDS011;9084;50.956;3.106;2023-05-14T09:09:59;10.77;;;9.75;;
17917;SDS011;9084;50.956;3.106;2023-05-14T09:12:28;11.45;;;10.45;;
17917;SDS011;9084;50.956;3.106;2023-05-14T09:14:54;10.57;;;9.60;;
17917;SDS011;9084;50.956;3.106;2023-05-14T09:17:20;11.20;;;10.07;;
17917;SDS011;9084;50.956;3.106;2023-05-14T09:19:46;11.93;;;10.73;;
17917;SDS011;9084;50.956;3.106;2023-05-14T09:22:17;11.43;;;10.20;;
17917;SDS011;9084;50.956;3.106;2023-05-14T09:24:43;12.02;;;10.98;;
17917;SDS011;9084;50.956;3.106;2023-05-14T09:27:14;11.27;;;10.18;;
17917;SDS011;9084;50.956;3.106;2023-05-14T09:29:48;11.38;;;10.38;;
17917;SDS011;9084;50.956;3.106;2023-05-14T09:32:15;12.20;;;10.93;;
17917;SDS011;9084;50.956;3.106;2023-05-14T09:34:47;11.57;;;10.52;;
17917;SDS011;9084;50.956;3.106;2023-05-14T09:37:12;12.70;;;11.50;;
17917;SDS011;9084;50.956;3.106;2023-05-14T09:39:38;13.00;;;12.00;;
17917;SDS011;9084;50.956;3.106;2023-05-14T09:42:06;14.75;;;13.25;;
17917;SDS011;9084;50.956;3.106;2023-05-14T09:44:34;13.93;;;12.70;;
17917;SDS011;9084;50.956;3.106;2023-05-14T09:47:01;16.85;;;13.13;;
17917;SDS011;9084;50.956;3.106;2023-05-14T09:49:30;15.32;;;13.90;;
17917;SDS011;9084;50.956;3.106;2023-05-14T09:51:56;14.80;;;13.43;;
17917;SDS011;9084;50.956;3.106;2023-05-14T09:54:22;16.45;;;14.80;;
17917;SDS011;9084;50.956;3.106;2023-05-14T09:56:50;16.95;;;15.35;;
17917;SDS011;9084;50.956;3.106;2023-05-14T09:59:15;16.10;;;14.55;;
17917;SDS011;9084;50.956;3.106;2023-05-14T10:01:43;16.73;;;15.15;;
17917;SDS011;9084;50.956;3.106;2023-05-14T10:04:12;16.88;;;15.13;;
17917;SDS011;9084;50.956;3.106;2023-05-14T10:06:38;16.58;;;15.07;;
17917;SDS011;9084;50.956;3.106;2023-05-14T10:09:11;16.00;;;14.63;;
17917;SDS011;9084;50.956;3.106;2023-05-14T10:11:37;15.13;;;13.85;;
17917;SDS011;9084;50.956;3.106;2023-05-14T10:14:09;14.07;;;12.68;;
17917;SDS011;9084;50.956;3.106;2023-05-14T10:16:51;14.82;;;13.68;;
17917;SDS011;9084;50.956;3.106;2023-05-14T10:19:19;15.10;;;13.57;;
17917;SDS011;9084;50.956;3.106;2023-05-14T10:21:58;13.80;;;12.50;;
17917;SDS011;9084;50.956;3.106;2023-05-14T10:24:28;14.63;;;12.55;;
17917;SDS011;9084;50.956;3.106;2023-05-14T10:26:54;13.55;;;12.45;;
17917;SDS011;9084;50.956;3.106;2023-05-14T10:29:28;14.00;;;12.52;;
17917;SDS011;9084;50.956;3.106;2023-05-14T10:31:59;17.05;;;12.57;;
17917;SDS011;9084;50.956;3.106;2023-05-14T10:34:40;13.65;;;12.25;;
17917;SDS011;9084;50.956;3.106;2023-05-14T10:37:16;13.23;;;12.10;;
17917;SDS011;9084;50.956;3.106;2023-05-14T10:42:27;14.23;;;12.77;;
17917;SDS011;9084;50.956;3.106;2023-05-14T10:45:01;14.50;;;13.07;;
17917;SDS011;9084;50.956;3.106;2023-05-14T10:47:32;12.98;;;11.88;;
17917;SDS011;9084;50.956;3.106;2023-05-14T10:50:01;12.27;;;11.18;;
17917;SDS011;9084;50.956;3.106;2023-05-14T10:52:29;13.00;;;11.70;;
17917;SDS011;9084;50.956;3.106;2023-05-14T10:54:58;12.85;;;11.73;;
17917;SDS011;9084;50.956;3.106;2023-05-14T10:57:28;13.45;;;12.30;;
17917;SDS011;9084;50.956;3.106;2023-05-14T10:59:56;15.13;;;13.57;;
17917;SDS011;9084;50.956;3.106;2023-05-14T11:05:00;13.23;;;11.93;;
17917;SDS011;9084;50.956;3.106;2023-05-14T11:10:01;12.02;;;10.90;;
17917;SDS011;9084;50.956;3.106;2023-05-14T11:12:28;12.00;;;10.95;;
17917;SDS011;9084;50.956;3.106;2023-05-14T11:14:58;13.40;;;12.00;;
17917;SDS011;9084;50.956;3.106;2023-05-14T11:17:28;12.52;;;11.32;;
17917;SDS011;9084;50.956;3.106;2023-05-14T11:19:57;13.43;;;12.30;;
17917;SDS011;9084;50.956;3.106;2023-05-14T11:22:23;14.25;;;12.88;;
17917;SDS011;9084;50.956;3.106;2023-05-14T11:24:49;12.93;;;11.73;;
17917;SDS011;9084;50.956;3.106;2023-05-14T11:27:15;13.18;;;12.07;;
17917;SDS011;9084;50.956;3.106;2023-05-14T11:29:45;11.93;;;10.93;;
17917;SDS011;9084;50.956;3.106;2023-05-14T11:32:12;11.90;;;10.80;;
17917;SDS011;9084;50.956;3.106;2023-05-14T11:34:38;12.55;;;11.45;;
17917;SDS011;9084;50.956;3.106;2023-05-14T11:37:11;11.50;;;10.43;;
17917;SDS011;9084;50.956;3.106;2023-05-14T11:39:38;13.30;;;11.93;;
17917;SDS011;9084;50.956;3.106;2023-05-14T11:42:10;12.40;;;11.40;;
17917;SDS011;9084;50.956;3.106;2023-05-14T11:44:37;12.32;;;11.32;;
17917;SDS011;9084;50.956;3.106;2023-05-14T11:47:03;12.15;;;11.15;;
17917;SDS011;9084;50.956;3.106;2023-05-14T11:49:30;12.40;;;11.20;;
17917;SDS011;9084;50.956;3.106;2023-05-14T11:52:05;12.10;;;11.10;;
17917;SDS011;9084;50.956;3.106;2023-05-14T11:54:35;11.63;;;10.55;;
17917;SDS011;9084;50.956;3.106;2023-05-14T11:57:09;13.88;;;10.63;;
17917;SDS011;9084;50.956;3.106;2023-05-14T11:59:39;11.13;;;10.20;;
17917;SDS011;9084;50.956;3.106;2023-05-14T12:02:12;10.38;;;9.45;;
17917;SDS011;9084;50.956;3.106;2023-05-14T12:04:39;12.15;;;10.95;;
17917;SDS011;9084;50.956;3.106;2023-05-14T12:07:07;11.73;;;10.55;;
17917;SDS011;9084;50.956;3.106;2023-05-14T12:09:38;11.80;;;10.57;;
17917;SDS011;9084;50.956;3.106;2023-05-14T12:12:08;9.95;;;8.95;;
17917;SDS011;9084;50.956;3.106;2023-05-14T12:14:39;9.63;;;8.63;;
17917;SDS011;9084;50.956;3.106;2023-05-14T12:19:48;11.27;;;10.07;;
17917;SDS011;9084;50.956;3.106;2023-05-14T12:22:16;11.02;;;10.18;;
17917;SDS011;9084;50.956;3.106;2023-05-14T12:24:51;11.48;;;10.30;;
17917;SDS011;9084;50.956;3.106;2023-05-14T12:27:27;10.18;;;9.18;;
17917;SDS011;9084;50.956;3.106;2023-05-14T12:30:02;11.50;;;9.90;;
17917;SDS011;9084;50.956;3.106;2023-05-14T12:32:36;10.27;;;9.35;;
17917;SDS011;9084;50.956;3.106;2023-05-14T12:35:05;9.85;;;9.05;;
17917;SDS011;9084;50.956;3.106;2023-05-14T12:37:31;8.98;;;8.05;;
17917;SDS011;9084;50.956;3.106;2023-05-14T12:40:00;11.02;;;9.93;;
17917;SDS011;9084;50.956;3.106;2023-05-14T12:42:27;10.50;;;9.45;;
17917;SDS011;9084;50.956;3.106;2023-05-14T12:44:54;13.35;;;10.02;;
17917;SDS011;9084;50.956;3.106;2023-05-14T12:47:20;11.88;;;10.70;;
17917;SDS011;9084;50.956;3.106;2023-05-14T12:49:46;9.88;;;9.05;;
17917;SDS011;9084;50.956;3.106;2023-05-14T12:52:11;10.35;;;9.45;;
17917;SDS011;9084;50.956;3.106;2023-05-14T12:54:37;10.18;;;9.30;;
17917;SDS011;9084;50.956;3.106;2023-05-14T12:57:04;10.73;;;9.43;;
17917;SDS011;9084;50.956;3.106;2023-05-14T12:59:34;11.13;;;9.98;;
17917;SDS011;9084;50.956;3.106;2023-05-14T13:02:00;9.80;;;9.00;;
17917;SDS011;9084;50.956;3.106;2023-05-14T13:04:26;10.68;;;9.40;;
17917;SDS011;9084;50.956;3.106;2023-05-14T13:06:51;9.75;;;8.77;;
17917;SDS011;9084;50.956;3.106;2023-05-14T13:09:17;9.63;;;8.63;;
17917;SDS011;9084;50.956;3.106;2023-05-14T13:11:44;13.07;;;10.23;;
17917;SDS011;9084;50.956;3.106;2023-05-14T13:14:10;11.07;;;10.07;;
17917;SDS011;9084;50.956;3.106;2023-05-14T13:16:36;9.52;;;8.63;;
17917;SDS011;9084;50.956;3.106;2023-05-14T13:19:01;9.98;;;8.77;;
17917;SDS011;9084;50.956;3.106;2023-05-14T13:21:29;10.52;;;9.50;;
17917;SDS011;9084;50.956;3.106;2023-05-14T13:23:55;10.60;;;9.75;;
17917;SDS011;9084;50.956;3.106;2023-05-14T13:26:21;10.05;;;9.05;;
17917;SDS011;9084;50.956;3.106;2023-05-14T13:28:50;10.60;;;9.02;;
17917;SDS011;9084;50.956;3.106;2023-05-14T13:31:16;10.75;;;9.65;;
17917;SDS011;9084;50.956;3.106;2023-05-14T13:33:42;10.45;;;9.55;;
17917;SDS011;9084;50.956;3.106;2023-05-14T13:36:09;9.95;;;8.80;;
17917;SDS011;9084;50.956;3.106;2023-05-14T13:38:37;9.25;;;8.35;;
17917;SDS011;9084;50.956;3.106;2023-05-14T13:41:03;9.50;;;8.68;;
17917;SDS011;9084;50.956;3.106;2023-05-14T13:43:32;9.63;;;8.45;;
17917;SDS011;9084;50.956;3.106;2023-05-14T13:45:59;10.45;;;9.23;;
17917;SDS011;9084;50.956;3.106;2023-05-14T13:48:25;9.40;;;8.60;;
17917;SDS011;9084;50.956;3.106;2023-05-14T13:50:51;9.30;;;8.40;;
17917;SDS011;9084;50.956;3.106;2023-05-14T13:53:21;9.50;;;8.63;;
17917;SDS011;9084;50.956;3.106;2023-05-14T13:55:50;8.23;;;7.63;;
17917;SDS011;9084;50.956;3.106;2023-05-14T13:58:22;8.95;;;7.38;;
17917;SDS011;9084;50.956;3.106;2023-05-14T14:00:51;9.13;;;8.00;;
17917;SDS011;9084;50.956;3.106;2023-05-14T14:03:18;7.85;;;7.05;;
17917;SDS011;9084;50.956;3.106;2023-05-14T14:05:44;8.48;;;7.68;;
17917;SDS011;9084;50.956;3.106;2023-05-14T14:08:14;8.68;;;7.90;;
17917;SDS011;9084;50.956;3.106;2023-05-14T14:10:42;7.97;;;7.25;;
17917;SDS011;9084;50.956;3.106;2023-05-14T14:13:08;8.63;;;7.88;;
17917;SDS011;9084;50.956;3.106;2023-05-14T14:15:35;9.18;;;8.48;;
17917;SDS011;9084;50.956;3.106;2023-05-14T14:18:01;9.75;;;8.77;;
17917;SDS011;9084;50.956;3.106;2023-05-14T14:20:27;10.77;;;9.80;;
17917;SDS011;9084;50.956;3.106;2023-05-14T14:22:53;10.90;;;10.00;;
17917;SDS011;9084;50.956;3.106;2023-05-14T14:25:19;10.88;;;9.98;;
17917;SDS011;9084;50.956;3.106;2023-05-14T14:27:44;10.82;;;9.88;;
17917;SDS011;9084;50.956;3.106;2023-05-14T14:30:13;10.63;;;9.52;;
17917;SDS011;9084;50.956;3.106;2023-05-14T14:35:07;10.05;;;9.05;;
17917;SDS011;9084;50.956;3.106;2023-05-14T14:37:33;9.70;;;9.00;;
17917;SDS011;9084;50.956;3.106;2023-05-14T14:39:59;10.38;;;8.85;;
17917;SDS011;9084;50.956;3.106;2023-05-14T14:42:26;9.65;;;8.82;;
17917;SDS011;9084;50.956;3.106;2023-05-14T14:44:55;10.02;;;9.15;;
17917;SDS011;9084;50.956;3.106;2023-05-14T14:47:20;10.48;;;9.55;;
17917;SDS011;9084;50.956;3.106;2023-05-14T14:49:46;10.30;;;9.40;;
17917;SDS011;9084;50.956;3.106;2023-05-14T14:52:16;10.57;;;9.70;;
17917;SDS011;9084;50.956;3.106;2023-05-14T14:54:44;10.00;;;9.20;;
17917;SDS011;9084;50.956;3.106;2023-05-14T14:57:10;9.20;;;8.40;;